Terminal Aerodrome Forecast
Issued by NWS

Home | Current Version | Previous Version | Graphics & Text | Print | Product List | Glossary On
Versions: 1 2 3 4 5 6 7 8 9 10 11 12 13 14 15 16 17 18 19
000
FTUS43 KTOP 020000 AAA
TAFFOE
TAF AMD
KFOE 020040Z 0201/0224 14009KT P6SM VCTS BKN040CB
      TEMPO 0201/0203 2SM TSRA OVC025CB
     FM020600 14008KT P6SM VCTS BKN035CB
      TEMPO 0209/0213 2SM TSRA OVC030CB
     FM021500 14005KT 3SM -TSRA BKN030CB
     FM022100 32014G22KT P6SM BKN020=

USA.gov is the U.S. government's official web portal to all federal, state and local government web resources and services.